sensor_id;sensor_type;location;lat;lon;timestamp;pressure;altitude;pressure_sealevel;temperature;humidity
68508;BME280;55510;49.560;19.090;2024-03-02T08:01:09;95774.22;;;5.04;100.00
68508;BME280;55510;49.560;19.090;2024-03-02T08:04:10;95771.31;;;5.12;100.00
68508;BME280;55510;49.560;19.090;2024-03-02T08:07:10;95777.06;;;5.21;100.00
68508;BME280;55510;49.560;19.090;2024-03-02T08:10:12;95775.53;;;5.44;100.00
68508;BME280;55510;49.560;19.090;2024-03-02T08:13:13;95773.97;;;5.55;100.00
68508;BME280;55510;49.560;19.090;2024-03-02T08:16:15;95778.31;;;5.73;100.00
68508;BME280;55510;49.560;19.090;2024-03-02T08:19:16;95782.59;;;5.98;100.00
68508;BME280;55510;49.560;19.090;2024-03-02T08:22:17;95783.34;;;6.29;100.00
68508;BME280;55510;49.560;19.090;2024-03-02T08:25:17;95773.09;;;6.44;100.00
68508;BME280;55510;49.560;19.090;2024-03-02T08:28:19;95771.31;;;6.62;100.00
68508;BME280;55510;49.560;19.090;2024-03-02T08:31:20;95775.25;;;6.71;100.00
68508;BME280;55510;49.560;19.090;2024-03-02T08:34:21;95779.59;;;6.77;100.00
68508;BME280;55510;49.560;19.090;2024-03-02T08:37:21;95781.28;;;6.84;100.00
68508;BME280;55510;49.560;19.090;2024-03-02T08:40:22;95777.63;;;6.73;100.00
68508;BME280;55510;49.560;19.090;2024-03-02T08:43:23;95776.03;;;6.72;100.00
68508;BME280;55510;49.560;19.090;2024-03-02T08:46:24;95784.09;;;6.65;100.00
68508;BME280;55510;49.560;19.090;2024-03-02T08:49:24;95782.03;;;6.55;100.00
68508;BME280;55510;49.560;19.090;2024-03-02T08:52:25;95786.84;;;6.70;100.00
68508;BME280;55510;49.560;19.090;2024-03-02T08:55:26;95788.66;;;6.81;100.00
68508;BME280;55510;49.560;19.090;2024-03-02T08:58:26;95785.75;;;6.95;100.00
68508;BME280;55510;49.560;19.090;2024-03-02T09:01:27;95790.72;;;7.20;100.00
68508;BME280;55510;49.560;19.090;2024-03-02T09:04:28;95792.28;;;7.33;100.00
68508;BME280;55510;49.560;19.090;2024-03-02T09:07:29;95798.25;;;7.58;100.00
68508;BME280;55510;49.560;19.090;2024-03-02T09:10:29;95790.88;;;7.77;100.00
68508;BME280;55510;49.560;19.090;2024-03-02T09:13:30;95790.88;;;7.77;100.00
68508;BME280;55510;49.560;19.090;2024-03-02T09:18:25;95801.44;;;8.06;100.00
68508;BME280;55510;49.560;19.090;2024-03-02T09:21:26;95802.34;;;8.17;100.00
68508;BME280;55510;49.560;19.090;2024-03-02T09:24:27;95803.81;;;8.24;100.00
68508;BME280;55510;49.560;19.090;2024-03-02T09:27:27;95808.22;;;8.36;100.00
68508;BME280;55510;49.560;19.090;2024-03-02T09:30:28;95814.56;;;8.35;100.00
68508;BME280;55510;49.560;19.090;2024-03-02T09:33:29;95813.75;;;8.34;100.00
68508;BME280;55510;49.560;19.090;2024-03-02T09:36:29;95825.00;;;8.41;100.00
68508;BME280;55510;49.560;19.090;2024-03-02T09:39:30;95818.97;;;8.46;100.00
68508;BME280;55510;49.560;19.090;2024-03-02T09:42:31;95816.06;;;8.48;100.00
68508;BME280;55510;49.560;19.090;2024-03-02T09:45:33;95821.56;;;8.41;100.00
68508;BME280;55510;49.560;19.090;2024-03-02T09:48:34;95829.28;;;8.25;100.00
68508;BME280;55510;49.560;19.090;2024-03-02T09:51:36;95823.00;;;8.32;100.00
68508;BME280;55510;49.560;19.090;2024-03-02T09:54:37;95827.66;;;8.41;100.00
68508;BME280;55510;49.560;19.090;2024-03-02T09:57:37;95828.88;;;8.51;100.00
68508;BME280;55510;49.560;19.090;2024-03-02T10:00:38;95819.44;;;8.60;100.00
68508;BME280;55510;49.560;19.090;2024-03-02T10:03:39;95825.63;;;8.66;100.00
68508;BME280;55510;49.560;19.090;2024-03-02T10:06:39;95827.31;;;8.72;100.00
68508;BME280;55510;49.560;19.090;2024-03-02T10:09:45;95825.25;;;8.79;100.00
68508;BME280;55510;49.560;19.090;2024-03-02T10:12:45;95826.50;;;8.72;100.00
68508;BME280;55510;49.560;19.090;2024-03-02T10:15:46;95828.47;;;8.81;100.00
68508;BME280;55510;49.560;19.090;2024-03-02T10:18:47;95824.72;;;8.77;100.00
68508;BME280;55510;49.560;19.090;2024-03-02T10:21:51;95823.16;;;8.81;100.00
68508;BME280;55510;49.560;19.090;2024-03-02T10:24:52;95825.81;;;8.81;100.00
68508;BME280;55510;49.560;19.090;2024-03-02T10:27:57;95819.47;;;8.82;100.00
68508;BME280;55510;49.560;19.090;2024-03-02T10:30:57;95819.47;;;8.82;100.00
68508;BME280;55510;49.560;19.090;2024-03-02T10:33:59;95820.16;;;8.95;100.00
68508;BME280;55510;49.560;19.090;2024-03-02T10:36:59;95814.47;;;9.08;100.00
68508;BME280;55510;49.560;19.090;2024-03-02T10:40:05;95821.94;;;9.11;100.00
68508;BME280;55510;49.560;19.090;2024-03-02T10:43:06;95822.59;;;9.24;100.00
68508;BME280;55510;49.560;19.090;2024-03-02T10:46:08;95820.31;;;9.33;100.00
68508;BME280;55510;49.560;19.090;2024-03-02T10:49:08;95818.69;;;9.54;100.00
68508;BME280;55510;49.560;19.090;2024-03-02T10:52:09;95825.91;;;9.31;100.00
68508;BME280;55510;49.560;19.090;2024-03-02T10:55:10;95816.34;;;9.57;100.00
68508;BME280;55510;49.560;19.090;2024-03-02T10:58:12;95820.25;;;9.50;100.00
68508;BME280;55510;49.560;19.090;2024-03-02T11:01:12;95821.66;;;9.57;100.00
68508;BME280;55510;49.560;19.090;2024-03-02T11:04:16;95820.00;;;9.51;100.00
68508;BME280;55510;49.560;19.090;2024-03-02T11:07:18;95814.63;;;9.74;100.00
68508;BME280;55510;49.560;19.090;2024-03-02T11:10:21;95818.16;;;9.84;100.00
68508;BME280;55510;49.560;19.090;2024-03-02T11:13:27;95814.56;;;9.96;100.00
68508;BME280;55510;49.560;19.090;2024-03-02T11:16:35;95815.56;;;10.22;100.00
68508;BME280;55510;49.560;19.090;2024-03-02T11:19:38;95820.66;;;10.34;100.00
68508;BME280;55510;49.560;19.090;2024-03-02T11:22:39;95816.13;;;10.29;100.00
68508;BME280;55510;49.560;19.090;2024-03-02T11:25:39;95817.19;;;10.66;100.00
68508;BME280;55510;49.560;19.090;2024-03-02T11:28:40;95813.13;;;10.58;100.00
68508;BME280;55510;49.560;19.090;2024-03-02T11:32:00;95812.78;;;10.93;100.00
68508;BME280;55510;49.560;19.090;2024-03-02T11:35:02;95814.50;;;11.30;100.00
68508;BME280;55510;49.560;19.090;2024-03-02T11:38:02;95813.22;;;11.38;100.00
68508;BME280;55510;49.560;19.090;2024-03-02T11:41:07;95810.66;;;10.95;100.00
68508;BME280;55510;49.560;19.090;2024-03-02T11:44:09;95805.81;;;10.81;100.00
68508;BME280;55510;49.560;19.090;2024-03-02T11:47:14;95804.69;;;10.67;100.00
68508;BME280;55510;49.560;19.090;2024-03-02T11:50:15;95807.59;;;10.65;100.00
68508;BME280;55510;49.560;19.090;2024-03-02T11:53:17;95803.94;;;10.82;100.00
68508;BME280;55510;49.560;19.090;2024-03-02T11:56:19;95804.75;;;10.82;100.00
68508;BME280;55510;49.560;19.090;2024-03-02T11:59:22;95803.47;;;10.90;100.00
68508;BME280;55510;49.560;19.090;2024-03-02T12:02:23;95796.94;;;11.24;100.00
68508;BME280;55510;49.560;19.090;2024-03-02T12:05:24;95799.28;;;11.10;100.00
68508;BME280;55510;49.560;19.090;2024-03-02T12:08:26;95794.69;;;10.95;100.00
68508;BME280;55510;49.560;19.090;2024-03-02T12:11:28;80704.13;;;11.10;100.00
68508;BME280;55510;49.560;19.090;2024-03-02T12:14:28;95791.09;;;11.48;100.00
68508;BME280;55510;49.560;19.090;2024-03-02T12:17:29;95781.06;;;12.17;100.00
68508;BME280;55510;49.560;19.090;2024-03-02T12:20:31;95790.28;;;12.71;100.00
68508;BME280;55510;49.560;19.090;2024-03-02T12:23:32;95787.88;;;12.70;100.00
68508;BME280;55510;49.560;19.090;2024-03-02T12:26:33;95781.28;;;12.41;100.00
68508;BME280;55510;49.560;19.090;2024-03-02T12:29:33;95779.94;;;12.54;100.00
68508;BME280;55510;49.560;19.090;2024-03-02T12:32:35;95785.84;;;12.41;100.00
68508;BME280;55510;49.560;19.090;2024-03-02T12:35:36;52707.41;;;12.36;100.00
68508;BME280;55510;49.560;19.090;2024-03-02T12:38:36;95781.81;;;12.38;100.00
68508;BME280;55510;49.560;19.090;2024-03-02T12:41:37;95778.31;;;12.53;100.00
68508;BME280;55510;49.560;19.090;2024-03-02T12:44:39;95776.16;;;12.66;100.00
68508;BME280;55510;49.560;19.090;2024-03-02T12:47:41;95765.97;;;12.73;100.00
68508;BME280;55510;49.560;19.090;2024-03-02T12:50:42;95769.72;;;12.72;100.00
68508;BME280;55510;49.560;19.090;2024-03-02T12:53:44;95767.63;;;12.64;99.74
68508;BME280;55510;49.560;19.090;2024-03-02T12:56:45;95764.34;;;12.87;100.00
68508;BME280;55510;49.560;19.090;2024-03-02T12:59:47;95769.34;;;12.99;100.00
68508;BME280;55510;49.560;19.090;2024-03-02T13:02:48;95765.91;;;12.99;98.08
68508;BME280;55510;49.560;19.090;2024-03-02T13:05:51;95759.41;;;13.10;99.50
68508;BME280;55510;49.560;19.090;2024-03-02T13:08:53;95763.34;;;13.28;96.43
68508;BME280;55510;49.560;19.090;2024-03-02T13:11:55;95763.09;;;13.19;94.00
68508;BME280;55510;49.560;19.090;2024-03-02T13:14:58;95764.38;;;13.32;96.35
68508;BME280;55510;49.560;19.090;2024-03-02T13:18:00;95764.03;;;13.49;96.60
68508;BME280;55510;49.560;19.090;2024-03-02T13:21:00;95760.69;;;13.73;96.44
68508;BME280;55510;49.560;19.090;2024-03-02T13:24:01;95758.59;;;14.00;96.10
68508;BME280;55510;49.560;19.090;2024-03-02T13:27:02;95759.94;;;14.27;94.62
68508;BME280;55510;49.560;19.090;2024-03-02T13:30:05;95761.28;;;14.29;91.62
68508;BME280;55510;49.560;19.090;2024-03-02T13:33:09;95767.31;;;14.11;94.18
68508;BME280;55510;49.560;19.090;2024-03-02T13:36:10;95765.94;;;13.84;96.39
68508;BME280;55510;49.560;19.090;2024-03-02T13:39:10;95773.03;;;13.64;95.74
68508;BME280;55510;49.560;19.090;2024-03-02T13:42:13;95759.09;;;13.67;98.06
68508;BME280;55510;49.560;19.090;2024-03-02T13:45:15;95758.72;;;13.44;97.40
68508;BME280;55510;49.560;19.090;2024-03-02T13:48:16;95760.66;;;13.28;97.82
68508;BME280;55510;49.560;19.090;2024-03-02T13:51:16;95760.47;;;13.14;99.37
68508;BME280;55510;49.560;19.090;2024-03-02T13:54:17;95756.38;;;12.72;98.99
68508;BME280;55510;49.560;19.090;2024-03-02T13:57:18;95747.38;;;12.47;100.00
68508;BME280;55510;49.560;19.090;2024-03-02T14:00:20;95747.38;;;12.47;100.00
68508;BME280;55510;49.560;19.090;2024-03-02T14:03:22;95749.06;;;12.12;100.00
68508;BME280;55510;49.560;19.090;2024-03-02T14:06:23;95750.38;;;11.99;100.00
68508;BME280;55510;49.560;19.090;2024-03-02T14:09:24;95747.97;;;11.87;100.00
68508;BME280;55510;49.560;19.090;2024-03-02T14:12:25;95750.63;;;11.82;100.00
68508;BME280;55510;49.560;19.090;2024-03-02T14:15:25;95756.75;;;11.61;100.00
68508;BME280;55510;49.560;19.090;2024-03-02T14:18:26;95753.84;;;11.53;100.00
68508;BME280;55510;49.560;19.090;2024-03-02T14:21:26;95760.72;;;11.49;100.00
68508;BME280;55510;49.560;19.090;2024-03-02T14:24:27;95751.41;;;11.36;100.00
68508;BME280;55510;49.560;19.090;2024-03-02T14:27:29;95756.44;;;11.22;100.00
68508;BME280;55510;49.560;19.090;2024-03-02T14:30:30;95757.78;;;11.29;100.00
68508;BME280;55510;49.560;19.090;2024-03-02T14:33:31;95761.47;;;11.23;100.00
68508;BME280;55510;49.560;19.090;2024-03-02T14:36:32;95758.56;;;11.14;100.00
68508;BME280;55510;49.560;19.090;2024-03-02T14:39:32;61888.91;;;11.05;100.00
68508;BME280;55510;49.560;19.090;2024-03-02T14:42:35;61888.91;;;-147.19;100.00
68508;BME280;55510;49.560;19.090;2024-03-02T14:45:36;61888.91;;;-147.19;100.00
68508;BME280;55510;49.560;19.090;2024-03-02T14:48:37;61888.91;;;-147.19;100.00
68508;BME280;55510;49.560;19.090;2024-03-02T14:51:38;61888.91;;;-147.19;100.00
68508;BME280;55510;49.560;19.090;2024-03-02T14:54:39;61888.91;;;-147.19;100.00
68508;BME280;55510;49.560;19.090;2024-03-02T14:57:39;61888.91;;;-147.19;100.00
68508;BME280;55510;49.560;19.090;2024-03-02T15:00:40;61888.91;;;-147.19;100.00
68508;BME280;55510;49.560;19.090;2024-03-02T15:03:41;61888.91;;;-147.19;100.00
68508;BME280;55510;49.560;19.090;2024-03-02T15:06:42;61888.91;;;-147.19;100.00
68508;BME280;55510;49.560;19.090;2024-03-02T15:09:43;61888.91;;;-147.19;100.00
68508;BME280;55510;49.560;19.090;2024-03-02T15:12:45;61888.91;;;-147.19;100.00
68508;BME280;55510;49.560;19.090;2024-03-02T15:15:45;61888.91;;;-147.19;100.00
68508;BME280;55510;49.560;19.090;2024-03-02T15:18:46;61888.91;;;-147.19;100.00
68508;BME280;55510;49.560;19.090;2024-03-02T15:21:47;61888.91;;;-147.19;100.00
68508;BME280;55510;49.560;19.090;2024-03-02T15:24:48;61888.91;;;-147.19;100.00
68508;BME280;55510;49.560;19.090;2024-03-02T15:27:49;61888.91;;;-147.19;100.00
68508;BME280;55510;49.560;19.090;2024-03-02T15:30:50;61888.91;;;-147.19;100.00
68508;BME280;55510;49.560;19.090;2024-03-02T15:33:50;61888.91;;;-147.19;100.00
68508;BME280;55510;49.560;19.090;2024-03-02T15:36:51;61888.91;;;-147.19;100.00
68508;BME280;55510;49.560;19.090;2024-03-02T15:39:52;61888.91;;;-147.19;100.00
68508;BME280;55510;49.560;19.090;2024-03-02T15:42:52;61888.91;;;-147.19;100.00
68508;BME280;55510;49.560;19.090;2024-03-02T15:45:53;61888.91;;;-147.19;100.00
68508;BME280;55510;49.560;19.090;2024-03-02T15:48:54;61888.91;;;-147.19;100.00
68508;BME280;55510;49.560;19.090;2024-03-02T15:51:55;61888.91;;;-147.19;100.00
68508;BME280;55510;49.560;19.090;2024-03-02T15:54:56;61888.91;;;-147.19;100.00
68508;BME280;55510;49.560;19.090;2024-03-02T15:57:57;61888.91;;;-147.19;100.00
68508;BME280;55510;49.560;19.090;2024-03-02T16:00:57;61888.91;;;-147.19;100.00
68508;BME280;55510;49.560;19.090;2024-03-02T16:03:58;61888.91;;;-147.19;100.00
68508;BME280;55510;49.560;19.090;2024-03-02T16:06:59;61888.91;;;-147.19;100.00
68508;BME280;55510;49.560;19.090;2024-03-02T16:09:59;61888.91;;;-147.19;100.00
68508;BME280;55510;49.560;19.090;2024-03-02T16:13:05;61888.91;;;-147.19;100.00
68508;BME280;55510;49.560;19.090;2024-03-02T16:16:06;61888.91;;;-147.19;100.00
68508;BME280;55510;49.560;19.090;2024-03-02T16:19:06;61888.91;;;-147.19;100.00
68508;BME280;55510;49.560;19.090;2024-03-02T16:22:07;61888.91;;;-147.19;100.00
68508;BME280;55510;49.560;19.090;2024-03-02T16:25:11;61888.91;;;-147.19;100.00
68508;BME280;55510;49.560;19.090;2024-03-02T16:28:12;61888.91;;;-147.19;100.00
68508;BME280;55510;49.560;19.090;2024-03-02T16:31:13;61888.91;;;-147.19;100.00
68508;BME280;55510;49.560;19.090;2024-03-02T16:34:15;61888.91;;;-147.19;100.00
68508;BME280;55510;49.560;19.090;2024-03-02T16:37:16;61888.91;;;-147.19;100.00
68508;BME280;55510;49.560;19.090;2024-03-02T16:40:17;61888.91;;;-147.19;100.00
68508;BME280;55510;49.560;19.090;2024-03-02T16:43:17;61888.91;;;-147.19;100.00
68508;BME280;55510;49.560;19.090;2024-03-02T16:46:18;61888.91;;;-147.19;100.00
68508;BME280;55510;49.560;19.090;2024-03-02T16:49:19;61888.91;;;-147.19;100.00
68508;BME280;55510;49.560;19.090;2024-03-02T16:52:20;61888.91;;;-147.19;100.00
68508;BME280;55510;49.560;19.090;2024-03-02T16:55:24;61888.91;;;-147.19;100.00
68508;BME280;55510;49.560;19.090;2024-03-02T16:58:25;61888.91;;;-147.19;100.00
68508;BME280;55510;49.560;19.090;2024-03-02T17:01:26;61888.91;;;-147.19;100.00
68508;BME280;55510;49.560;19.090;2024-03-02T17:04:27;61888.91;;;-147.19;100.00
68508;BME280;55510;49.560;19.090;2024-03-02T17:07:28;61888.91;;;-147.19;100.00
68508;BME280;55510;49.560;19.090;2024-03-02T17:10:29;61888.91;;;-147.19;100.00
68508;BME280;55510;49.560;19.090;2024-03-02T17:13:30;61888.91;;;-147.19;100.00
68508;BME280;55510;49.560;19.090;2024-03-02T17:16:31;61888.91;;;-147.19;100.00
68508;BME280;55510;49.560;19.090;2024-03-02T17:19:31;61888.91;;;-147.19;100.00
68508;BME280;55510;49.560;19.090;2024-03-02T17:22:32;61888.91;;;-147.19;100.00
68508;BME280;55510;49.560;19.090;2024-03-02T17:25:33;61888.91;;;-147.19;100.00
68508;BME280;55510;49.560;19.090;2024-03-02T17:28:34;61888.91;;;-147.19;100.00
68508;BME280;55510;49.560;19.090;2024-03-02T17:31:34;61888.91;;;-147.19;100.00
68508;BME280;55510;49.560;19.090;2024-03-02T17:34:35;61888.91;;;-147.19;100.00
68508;BME280;55510;49.560;19.090;2024-03-02T17:37:36;61888.91;;;-147.19;100.00
68508;BME280;55510;49.560;19.090;2024-03-02T17:40:40;61888.91;;;-147.19;100.00
68508;BME280;55510;49.560;19.090;2024-03-02T17:43:42;61888.91;;;-147.19;100.00
68508;BME280;55510;49.560;19.090;2024-03-02T17:46:42;61888.91;;;-147.19;100.00
68508;BME280;55510;49.560;19.090;2024-03-02T17:49:43;61888.91;;;-147.19;100.00
68508;BME280;55510;49.560;19.090;2024-03-02T17:52:44;61888.91;;;-147.19;100.00
68508;BME280;55510;49.560;19.090;2024-03-02T17:55:45;61888.91;;;-147.19;100.00
68508;BME280;55510;49.560;19.090;2024-03-02T17:58:45;61888.91;;;-147.19;100.00
68508;BME280;55510;49.560;19.090;2024-03-02T18:01:46;61888.91;;;-147.19;100.00
68508;BME280;55510;49.560;19.090;2024-03-02T18:04:46;61888.91;;;-147.19;100.00
68508;BME280;55510;49.560;19.090;2024-03-02T18:07:47;61888.91;;;-147.19;100.00
68508;BME280;55510;49.560;19.090;2024-03-02T18:10:48;61888.91;;;-147.19;100.00
68508;BME280;55510;49.560;19.090;2024-03-02T18:13:49;61888.91;;;-147.19;100.00
68508;BME280;55510;49.560;19.090;2024-03-02T18:16:51;61888.91;;;-147.19;100.00
68508;BME280;55510;49.560;19.090;2024-03-02T18:19:52;61888.91;;;-147.19;100.00
68508;BME280;55510;49.560;19.090;2024-03-02T18:22:53;61888.91;;;-147.19;100.00
68508;BME280;55510;49.560;19.090;2024-03-02T18:25:57;61888.91;;;-147.19;100.00
68508;BME280;55510;49.560;19.090;2024-03-02T18:28:57;61888.91;;;-147.19;100.00
68508;BME280;55510;49.560;19.090;2024-03-02T18:31:58;61888.91;;;-147.19;100.00
68508;BME280;55510;49.560;19.090;2024-03-02T18:35:00;61888.91;;;-147.19;100.00
68508;BME280;55510;49.560;19.090;2024-03-02T18:38:01;61888.91;;;-147.19;100.00
68508;BME280;55510;49.560;19.090;2024-03-02T18:41:01;61888.91;;;-147.19;100.00
68508;BME280;55510;49.560;19.090;2024-03-02T18:44:02;61888.91;;;-147.19;100.00
68508;BME280;55510;49.560;19.090;2024-03-02T18:47:06;61888.91;;;-147.19;100.00
68508;BME280;55510;49.560;19.090;2024-03-02T18:50:07;61888.91;;;-147.19;100.00
68508;BME280;55510;49.560;19.090;2024-03-02T18:53:10;61888.91;;;-147.19;100.00
68508;BME280;55510;49.560;19.090;2024-03-02T18:56:12;61888.91;;;-147.19;100.00
68508;BME280;55510;49.560;19.090;2024-03-02T18:59:12;61888.91;;;-147.19;100.00
68508;BME280;55510;49.560;19.090;2024-03-02T19:02:13;61888.91;;;-147.19;100.00
68508;BME280;55510;49.560;19.090;2024-03-02T19:05:13;61888.91;;;-147.19;100.00
68508;BME280;55510;49.560;19.090;2024-03-02T19:08:14;61888.91;;;-147.19;100.00
68508;BME280;55510;49.560;19.090;2024-03-02T19:11:18;61888.91;;;-147.19;100.00
68508;BME280;55510;49.560;19.090;2024-03-02T19:14:19;61888.91;;;-147.19;100.00
68508;BME280;55510;49.560;19.090;2024-03-02T19:17:20;61888.91;;;-147.19;100.00
68508;BME280;55510;49.560;19.090;2024-03-02T19:20:20;61888.91;;;-147.19;100.00
68508;BME280;55510;49.560;19.090;2024-03-02T19:23:22;61888.91;;;-147.19;100.00
68508;BME280;55510;49.560;19.090;2024-03-02T19:26:24;61888.91;;;-147.19;100.00
68508;BME280;55510;49.560;19.090;2024-03-02T19:29:24;61888.91;;;-147.19;100.00
68508;BME280;55510;49.560;19.090;2024-03-02T19:32:30;61888.91;;;-147.19;100.00
68508;BME280;55510;49.560;19.090;2024-03-02T19:35:30;61888.91;;;-147.19;100.00
68508;BME280;55510;49.560;19.090;2024-03-02T19:38:31;61888.91;;;-147.19;100.00
68508;BME280;55510;49.560;19.090;2024-03-02T19:41:34;61888.91;;;-147.19;100.00
68508;BME280;55510;49.560;19.090;2024-03-02T19:44:34;61888.91;;;-147.19;100.00
68508;BME280;55510;49.560;19.090;2024-03-02T19:47:35;61888.91;;;-147.19;100.00
68508;BME280;55510;49.560;19.090;2024-03-02T19:50:37;61888.91;;;-147.19;100.00
68508;BME280;55510;49.560;19.090;2024-03-02T19:53:40;61888.91;;;-147.19;100.00
68508;BME280;55510;49.560;19.090;2024-03-02T19:56:40;61888.91;;;-147.19;100.00
68508;BME280;55510;49.560;19.090;2024-03-02T19:59:41;61888.91;;;-147.19;100.00
68508;BME280;55510;49.560;19.090;2024-03-02T20:02:42;61888.91;;;-147.19;100.00
68508;BME280;55510;49.560;19.090;2024-03-02T20:05:42;61888.91;;;-147.19;100.00
68508;BME280;55510;49.560;19.090;2024-03-02T20:08:43;61888.91;;;-147.19;100.00
68508;BME280;55510;49.560;19.090;2024-03-02T20:11:44;61888.91;;;-147.19;100.00
68508;BME280;55510;49.560;19.090;2024-03-02T20:14:45;61888.91;;;-147.19;100.00
68508;BME280;55510;49.560;19.090;2024-03-02T20:17:45;61888.91;;;-147.19;100.00
68508;BME280;55510;49.560;19.090;2024-03-02T20:20:47;61888.91;;;-147.19;100.00
68508;BME280;55510;49.560;19.090;2024-03-02T20:23:47;61888.91;;;-147.19;100.00
68508;BME280;55510;49.560;19.090;2024-03-02T20:26:48;61888.91;;;-147.19;100.00
68508;BME280;55510;49.560;19.090;2024-03-02T20:29:49;61888.91;;;-147.19;100.00
68508;BME280;55510;49.560;19.090;2024-03-02T20:32:50;61888.91;;;-147.19;100.00
68508;BME280;55510;49.560;19.090;2024-03-02T20:35:50;61888.91;;;-147.19;100.00
68508;BME280;55510;49.560;19.090;2024-03-02T20:38:51;61888.91;;;-147.19;100.00
68508;BME280;55510;49.560;19.090;2024-03-02T20:41:51;61888.91;;;-147.19;100.00
68508;BME280;55510;49.560;19.090;2024-03-02T20:44:52;61888.91;;;-147.19;100.00
68508;BME280;55510;49.560;19.090;2024-03-02T20:47:53;61888.91;;;-147.19;100.00
68508;BME280;55510;49.560;19.090;2024-03-02T20:50:53;61888.91;;;-147.19;100.00
68508;BME280;55510;49.560;19.090;2024-03-02T20:53:55;61888.91;;;-147.19;100.00
68508;BME280;55510;49.560;19.090;2024-03-02T20:56:57;61888.91;;;-147.19;100.00
68508;BME280;55510;49.560;19.090;2024-03-02T20:59:58;61888.91;;;-147.19;100.00
68508;BME280;55510;49.560;19.090;2024-03-02T21:02:59;61888.91;;;-147.19;100.00
68508;BME280;55510;49.560;19.090;2024-03-02T21:05:59;61888.91;;;-147.19;100.00
68508;BME280;55510;49.560;19.090;2024-03-02T21:09:01;61888.91;;;-147.19;100.00
68508;BME280;55510;49.560;19.090;2024-03-02T21:12:02;61888.91;;;-147.19;100.00
68508;BME280;55510;49.560;19.090;2024-03-02T21:15:05;61888.91;;;-147.19;100.00
68508;BME280;55510;49.560;19.090;2024-03-02T21:18:06;61888.91;;;-147.19;100.00
68508;BME280;55510;49.560;19.090;2024-03-02T21:21:07;61888.91;;;-147.19;100.00
68508;BME280;55510;49.560;19.090;2024-03-02T21:24:07;61888.91;;;-147.19;100.00
68508;BME280;55510;49.560;19.090;2024-03-02T21:27:09;61888.91;;;-147.19;100.00
68508;BME280;55510;49.560;19.090;2024-03-02T21:30:11;61888.91;;;-147.19;100.00
68508;BME280;55510;49.560;19.090;2024-03-02T21:33:12;61888.91;;;-147.19;100.00
68508;BME280;55510;49.560;19.090;2024-03-02T21:36:13;61888.91;;;-147.19;100.00
68508;BME280;55510;49.560;19.090;2024-03-02T21:39:14;61888.91;;;-147.19;100.00
68508;BME280;55510;49.560;19.090;2024-03-02T21:42:15;61888.91;;;-147.19;100.00
68508;BME280;55510;49.560;19.090;2024-03-02T21:45:16;61888.91;;;-147.19;100.00
68508;BME280;55510;49.560;19.090;2024-03-02T21:48:17;61888.91;;;-147.19;100.00
68508;BME280;55510;49.560;19.090;2024-03-02T21:51:18;61888.91;;;-147.19;100.00
68508;BME280;55510;49.560;19.090;2024-03-02T21:54:19;61888.91;;;-147.19;100.00
68508;BME280;55510;49.560;19.090;2024-03-02T21:57:20;61888.91;;;-147.19;100.00
68508;BME280;55510;49.560;19.090;2024-03-02T22:00:21;61888.91;;;-147.19;100.00
68508;BME280;55510;49.560;19.090;2024-03-02T22:03:21;61888.91;;;-147.19;100.00
68508;BME280;55510;49.560;19.090;2024-03-02T22:06:22;61888.91;;;-147.19;100.00
68508;BME280;55510;49.560;19.090;2024-03-02T22:09:23;61888.91;;;-147.19;100.00
68508;BME280;55510;49.560;19.090;2024-03-02T22:12:24;61888.91;;;-147.19;100.00
68508;BME280;55510;49.560;19.090;2024-03-02T22:15:25;61888.91;;;-147.19;100.00
68508;BME280;55510;49.560;19.090;2024-03-02T22:18:25;61888.91;;;-147.19;100.00
68508;BME280;55510;49.560;19.090;2024-03-02T22:21:26;61888.91;;;-147.19;100.00
68508;BME280;55510;49.560;19.090;2024-03-02T22:24:27;61888.91;;;-147.19;100.00
68508;BME280;55510;49.560;19.090;2024-03-02T22:27:27;61888.91;;;-147.19;100.00
68508;BME280;55510;49.560;19.090;2024-03-02T22:30:28;61888.91;;;-147.19;100.00
68508;BME280;55510;49.560;19.090;2024-03-02T22:33:29;61888.91;;;-147.19;100.00
68508;BME280;55510;49.560;19.090;2024-03-02T22:36:30;61888.91;;;-147.19;100.00
68508;BME280;55510;49.560;19.090;2024-03-02T22:39:31;61888.91;;;-147.19;100.00
68508;BME280;55510;49.560;19.090;2024-03-02T22:42:31;61888.91;;;-147.19;100.00
68508;BME280;55510;49.560;19.090;2024-03-02T22:45:32;61888.91;;;-147.19;100.00
68508;BME280;55510;49.560;19.090;2024-03-02T22:48:32;61888.91;;;-147.19;100.00
68508;BME280;55510;49.560;19.090;2024-03-02T22:51:33;61888.91;;;-147.19;100.00
68508;BME280;55510;49.560;19.090;2024-03-02T22:54:34;61888.91;;;-147.19;100.00
68508;BME280;55510;49.560;19.090;2024-03-02T22:57:34;61888.91;;;-147.19;100.00
68508;BME280;55510;49.560;19.090;2024-03-02T23:00:35;61888.91;;;-147.19;100.00
68508;BME280;55510;49.560;19.090;2024-03-02T23:03:47;61888.91;;;-147.19;100.00
68508;BME280;55510;49.560;19.090;2024-03-02T23:06:48;61888.91;;;-147.19;100.00
68508;BME280;55510;49.560;19.090;2024-03-02T23:09:49;61888.91;;;-147.19;100.00
68508;BME280;55510;49.560;19.090;2024-03-02T23:12:49;61888.91;;;-147.19;100.00
68508;BME280;55510;49.560;19.090;2024-03-02T23:15:50;61888.91;;;-147.19;100.00
68508;BME280;55510;49.560;19.090;2024-03-02T23:18:51;61888.91;;;-147.19;100.00
68508;BME280;55510;49.560;19.090;2024-03-02T23:21:52;61888.91;;;-147.19;100.00
68508;BME280;55510;49.560;19.090;2024-03-02T23:24:53;61888.91;;;-147.19;100.00